Data for 06/11/2015

Time Sea-Level Adjusted Pressure Absolute Pressure Temperature Relative Humidity Dew Point   
(mb) (inHg) (mb) (inHg) (C) (F) (%) (C) (F)
00:05 1016 30 845 24.95 15.1 59.3 73 10.4 50.8
00:10 1016 30 845 24.95 15 59 74 10.5 50.9
00:15 1016 30 845 24.95 14.8 58.6 75 10.5 50.8
00:20 1016 30 845 24.95 14.6 58.3 75 10.3 50.6
00:25 1016 30 845 24.95 14.6 58.2 75 10.3 50.5
00:30 1016 30 845 24.95 14.6 58.3 75 10.3 50.5
00:35 1016 30 845 24.95 14.6 58.2 75 10.3 50.6
00:40 1016 30 845 24.95 14.5 58.1 76 10.4 50.7
00:45 1016 30 845 24.95 14.4 57.9 76 10.2 50.4
00:50 1016 30 845 24.95 14.5 58 75 10.1 50.2
00:55 1016 30 845 24.95 14.6 58.3 74 10.1 50.2
01:00 1016 30 845 24.95 14.6 58.3 75 10.2 50.4
01:05 1016 30 845 24.95 14.5 58.2 75 10.2 50.3
01:10 1016 30 845 24.95 14.5 58.1 75 10.1 50.2
01:15 1016 30 845 24.95 14.4 57.8 75 10.1 50.2
01:20 1016 30 845 24.95 14.2 57.5 77 10.2 50.4
01:25 1016 30 845 24.95 14.2 57.5 75 9.8 49.7
01:30 1016 30 845 24.95 14 57.2 75 9.6 49.3
01:35 1016 30 845 24.95 13.9 57 75 9.6 49.2
01:40 1016 30 845 24.95 13.9 57 76 9.7 49.5
01:45 1016 30 845 24.95 14 57.2 75 9.7 49.5
01:50 1016 30 846 24.98 13.8 56.9 76 9.7 49.5
01:55 1016 30 846 24.98 13.7 56.6 76 9.6 49.3
02:00 1016 30 846 24.98 13.5 56.4 76 9.5 49.1
02:05 1016 30 846 24.98 13.4 56.1 76 9.3 48.7
02:10 1016 30 846 24.98 13.2 55.8 75 9 48.2
02:15 1016 30 846 24.98 13.2 55.7 75 8.9 48
02:20 1017 30.03 846 24.98 13.1 55.5 73 8.4 47.2
02:25 1017 30.03 846 24.98 13.3 55.9 73 8.6 47.5
02:30 1017 30.03 846 24.98 13.4 56 74 8.9 48.1
02:35 1017 30.03 846 24.98 13.4 56 74 8.9 48
02:40 1017 30.03 846 24.98 13 55.4 74 8.6 47.5
02:45 1017 30.03 846 24.98 12.7 54.8 73 7.9 46.3
02:50 1017 30.03 846 24.98 12.5 54.5 73 7.8 46
02:55 1017 30.03 846 24.98 12.3 54.1 73 7.7 45.8
03:00 1017 30.03 846 24.98 12.2 53.9 74 7.6 45.7
03:05 1017 30.03 846 24.98 12.2 54 72 7.4 45.4
03:10 1017 30.03 846 24.98 12.3 54.1 75 8 46.4
03:15 1017 30.03 846 24.98 12.3 54.1 75 7.9 46.2
03:20 1017 30.03 846 24.98 12 53.6 77 8.1 46.5
03:25 1017 30.03 846 24.98 11.7 53.1 78 8 46.4
03:30 1017 30.03 846 24.98 11.6 52.8 78 7.9 46.3
03:35 1017 30.03 846 24.98 11.5 52.8 79 8 46.4
03:40 1017 30.03 846 24.98 11.6 52.9 78 8 46.4
03:45 1017 30.03 846 24.98 11.6 52.9 79 8.1 46.6
03:50 1017 30.03 846 24.98 11.5 52.7 79 8 46.4
03:55 1017 30.03 846 24.98 11.4 52.5 79 7.9 46.1
04:00 1017 30.03 846 24.98 11.3 52.3 79 7.8 46
04:05 1017 30.03 846 24.98 11.3 52.3 79 7.8 46
04:10 1017 30.03 846 24.98 11.3 52.3 79 7.7 45.9
04:15 1017 30.03 846 24.98 11.3 52.3 78 7.7 45.8
04:20 1017 30.03 846 24.98 11.1 52 79 7.6 45.7
04:25 1017 30.03 846 24.98 11.1 52 78 7.4 45.4
04:30 1017 30.03 846 24.98 11.4 52.4 77 7.4 45.4
04:35 1017 30.03 846 24.98 11.8 53.2 74 7.2 45
04:40 1017 30.03 846 24.98 12.2 53.9 74 7.7 45.8
04:45 1017 30.03 847 25.01 11.8 53.2 76 7.6 45.8
04:50 1017 30.03 847 25.01 11.6 52.9 77 7.7 45.8
04:55 1017 30.03 847 25.01 11.6 52.9 77 7.8 46
05:00 1018 30.06 847 25.01 11.8 53.3 77 7.9 46.3
05:05 1018 30.06 847 25.01 12 53.6 76 7.9 46.2
05:10 1018 30.06 847 25.01 12.1 53.7 75 7.7 45.9
05:15 1018 30.06 847 25.01 12.1 53.8 74 7.6 45.8
05:20 1018 30.06 847 25.01 11.8 53.2 76 7.6 45.8
05:25 1018 30.06 847 25.01 11.5 52.7 76 7.5 45.4
05:30 1018 30.06 847 25.01 11.7 53.1 74 7.3 45.1
05:35 1018 30.06 847 25.01 11.8 53.2 73 7.1 44.8
05:40 1018 30.06 847 25.01 12 53.7 70 6.8 44.3
05:45 1018 30.06 847 25.01 12.4 54.3 71 7.3 45.1
05:50 1018 30.06 847 25.01 12.6 54.6 71 7.4 45.4
05:55 1018 30.06 847 25.01 13 55.4 71 8 46.4
06:00 1018 30.06 847 25.01 12.9 55.2 73 8.1 46.6
06:05 1018 30.06 847 25.01 12.7 54.8 75 8.3 47
06:10 1018 30.06 847 25.01 12.8 55 74 8.3 46.9
06:15 1018 30.06 847 25.01 13.2 55.7 71 8.1 46.6
06:20 1018 30.06 847 25.01 13.3 55.9 70 8 46.3
06:25 1018 30.06 847 25.01 13.5 56.4 69 8.1 46.5
06:30 1018 30.06 847 25.01 14.1 57.4 68 8.3 46.9
06:35 1018 30.06 847 25.01 14.3 57.8 69 8.7 47.7
06:40 1018 30.06 847 25.01 14.6 58.2 67 8.6 47.5
06:45 1018 30.06 847 25.01 15 59.1 66 8.8 47.8
06:50 1018 30.06 847 25.01 15.5 59.9 63 8.6 47.5
06:55 1018 30.06 847 25.01 15.9 60.7 62 8.7 47.7
07:00 1018 30.06 847 25.01 16 60.7 62 8.7 47.6
07:05 1018 30.06 847 25.01 16.2 61.2 57 7.9 46.2
07:10 1018 30.06 847 25.01 16.8 62.2 57 8.4 47.1
07:15 1018 30.06 847 25.01 17.1 62.7 56 8.3 47
07:20 1018 30.06 847 25.01 17.7 63.8 55 8.5 47.3
07:25 1018 30.06 847 25.01 18.1 64.6 54 8.8 47.8
07:30 1018 30.06 847 25.01 18.6 65.5 53 8.9 48
07:35 1018 30.06 847 25.01 18.5 65.3 53 8.7 47.7
07:40 1018 30.06 847 25.01 18.9 66.1 51 8.8 47.9
07:45 1018 30.06 847 25.01 19.2 66.5 50 8.5 47.3
07:50 1018 30.06 847 25.01 19.2 66.6 50 8.7 47.7
07:55 1018 30.06 847 25.01 19.8 67.6 48 8.6 47.5
08:00 1018 30.06 847 25.01 20 68 48 8.7 47.6
08:05 1018 30.06 847 25.01 19 66.2 50 8.6 47.5
08:10 1018 30.06 847 25.01 19.4 66.9 49 8.6 47.4
08:15 1018 30.06 847 25.01 19 66.1 53 9.3 48.8
08:20 1018 30.06 848 25.04 19 66.2 53 9.3 48.7
08:25 1018 30.06 848 25.04 19.3 66.7 51 8.9 48.1
08:30 1018 30.06 847 25.01 19.5 67 51 9.1 48.4
08:35 1018 30.06 847 25.01 19.9 67.7 48 8.8 47.8
08:40 1018 30.06 847 25.01 20.3 68.6 49 9.4 49
08:45 1018 30.06 847 25.01 20.3 68.6 49 9.3 48.8
08:50 1018 30.06 847 25.01 20.8 69.5 47 9.1 48.5
08:55 1018 30.06 847 25.01 21.1 70 47 9.5 49.1
09:00 1018 30.06 847 25.01 21.2 70.1 48 10 50
09:05 1018 30.06 847 25.01 21.1 70 47 9.4 49
09:10 1018 30.06 847 25.01 21.6 70.9 45 9.5 49
09:15 1018 30.06 847 25.01 21.7 71.1 46 9.9 49.8
09:20 1018 30.06 847 25.01 21.6 70.9 47 10 50.1
09:25 1018 30.06 847 25.01 21.5 70.8 46 9.6 49.3
09:30 1018 30.06 847 25.01 21.8 71.2 46 9.9 49.7
09:35 1018 30.06 847 25.01 21.9 71.3 45 9.6 49.2
09:40 1018 30.06 847 25.01 22.2 71.9 44 9.5 49.1
09:45 1018 30.06 847 25.01 22.4 72.3 43 9.5 49.1
09:50 1018 30.06 847 25.01 22.6 72.6 44 9.8 49.6
09:55 1018 30.06 847 25.01 22.1 71.7 44 9.4 49
10:00 1018 30.06 847 25.01 21.5 70.8 45 9.2 48.6
10:05 1018 30.06 847 25.01 21.8 71.2 43 8.8 47.8
10:10 1018 30.06 847 25.01 22.3 72.1 43 9.3 48.7
10:15 1018 30.06 847 25.01 22.2 72 45 9.9 49.8
10:20 1018 30.06 847 25.01 23.2 73.7 41 9.3 48.8
10:25 1018 30.06 847 25.01 23.1 73.7 41 9.2 48.6
10:30 1018 30.06 847 25.01 23.4 74.1 39 8.9 48
10:35 1018 30.06 847 25.01 23.4 74 41 9.7 49.5
10:40 1018 30.06 847 25.01 23.6 74.4 41 9.7 49.4
10:45 1018 30.06 847 25.01 23.5 74.2 41 9.7 49.5
10:50 1018 30.06 847 25.01 23.6 74.4 38 8.5 47.4
10:55 1018 30.06 847 25.01 24.3 75.8 34 7.6 45.7
11:00 1018 30.06 847 25.01 24.5 76 35 8.2 46.8
11:05 1018 30.06 847 25.01 24 75.3 37 8.7 47.7
11:10 1018 30.06 847 25.01 23.8 74.8 38 8.8 47.9
11:15 1018 30.06 847 25.01 24.1 75.4 39 9.3 48.8
11:20 1018 30.06 847 25.01 24.4 76 37 8.9 48
11:25 1018 30.06 847 25.01 25.2 77.4 34 8.5 47.2
11:30 1018 30.06 847 25.01 25 76.9 36 9.3 48.7
11:35 1018 30.06 847 25.01 24.4 75.9 36 8.4 47.1
11:40 1018 30.06 847 25.01 24.3 75.8 35 8 46.4
11:45 1017 30.03 847 25.01 24.9 76.8 34 8 46.4
11:50 1017 30.03 847 25.01 25.3 77.6 32 7.8 46
11:55 1017 30.03 847 25.01 25.3 77.5 32 7.8 46.1
12:00 1017 30.03 847 25.01 25.4 77.7 31 7.5 45.5
12:05 1017 30.03 847 25.01 25.7 78.2 31 7.7 45.9
12:10 1017 30.03 846 24.98 25.4 77.8 31 7.4 45.3
12:15 1017 30.03 846 24.98 26.1 78.9 32 8.5 47.2
12:20 1017 30.03 846 24.98 26.1 78.9 32 8.2 46.8
12:25 1017 30.03 846 24.98 26.2 79.1 30 7.3 45.2
12:30 1017 30.03 846 24.98 26.2 79.2 29 6.8 44.3
12:35 1017 30.03 846 24.98 26.5 79.6 30 7.8 46
12:40 1017 30.03 846 24.98 26.2 79.2 28 6.5 43.8
12:45 1017 30.03 846 24.98 26.2 79.1 30 7.5 45.4
12:50 1017 30.03 846 24.98 26.5 79.7 30 7.9 46.1
12:55 1017 30.03 846 24.98 26 78.7 29 6.9 44.3
13:00 1017 30.03 846 24.98 26.7 80 26 5.8 42.4
13:05 1017 30.03 846 24.98 26.8 80.2 27 6.4 43.6
13:10 1017 30.03 846 24.98 26.8 80.2 28 6.9 44.5
13:15 1017 30.03 846 24.98 26.7 80.1 27 6.3 43.3
13:20 1017 30.03 846 24.98 26.4 79.6 27 6.4 43.5
13:25 1017 30.03 846 24.98 27 80.6 25 5.7 42.2
13:30 1016 30 846 24.98 27 80.7 23 4.5 40.2
13:35 1016 30 846 24.98 27 80.6 24 4.7 40.5
13:40 1016 30 846 24.98 27.2 80.9 25 5.6 42.1
13:45 1016 30 846 24.98 27.3 81.1 24 5.2 41.4
13:50 1016 30 846 24.98 27 80.6 22 3.7 38.7
13:55 1016 30 846 24.98 27.4 81.4 20 2.9 37.2
14:00 1016 30 846 24.98 27.7 81.9 21 3.7 38.6
14:05 1016 30 846 24.98 27.5 81.4 17 0.1 32.3
14:10 1016 30 846 24.98 26.9 80.3 18 1.1 34
14:15 1016 30 846 24.98 27.4 81.4 17 0.8 33.5
14:20 1016 30 846 24.98 27.6 81.7 16 0.1 32.1
14:25 1016 30 846 24.98 26.9 80.5 18 0.8 33.4
14:30 1016 30 845 24.95 27.3 81.1 20 2.3 36.2
14:35 1016 30 845 24.95 27.9 82.3 19 2.6 36.8
14:40 1016 30 845 24.95 27.7 81.9 17 0.4 32.8
14:45 1016 30 845 24.95 28 82.5 18 1.8 35.3
14:50 1016 30 845 24.95 28.2 82.8 18 2.1 35.8
14:55 1016 30 845 24.95 27.9 82.1 20 3.5 38.3
15:00 1016 30 845 24.95 28 82.3 20 3.5 38.2
15:05 1016 30 845 24.95 28.3 82.9 19 2.7 36.9
15:10 1016 30 845 24.95 28 82.5 20 3 37.4
15:15 1016 30 845 24.95 27.5 81.5 21 3.4 38.1
15:20 1016 30 845 24.95 26.7 80.1 22 3.8 38.8
15:25 1016 30 845 24.95 26 78.8 23 3.4 38.1
15:30 1016 30 845 24.95 26.3 79.3 21 2.7 36.8
15:35 1016 30 845 24.95 27.4 81.3 21 3.3 38
15:40 1016 30 845 24.95 27 80.6 22 3.9 38.9
15:45 1016 30 845 24.95 26.2 79.2 23 3.7 38.6
15:50 1016 30 845 24.95 26.3 79.3 23 3.6 38.5
15:55 1016 30 845 24.95 27.4 81.3 21 3.4 38.2
16:00 1016 30 845 24.95 27.4 81.4 22 4 39.1
16:05 1016 30 845 24.95 26.5 79.8 22 3.5 38.3
16:10 1016 30 845 24.95 26.5 79.6 23 3.8 38.9
16:15 1016 30 845 24.95 26 78.7 24 4 39.2
16:20 1015 29.97 845 24.95 26.1 78.9 24 4.3 39.7
16:25 1015 29.97 845 24.95 26.6 79.8 25 5.1 41.2
16:30 1015 29.97 845 24.95 26.7 80 22 3.6 38.4
16:35 1015 29.97 844 24.92 26.1 78.9 24 4.1 39.5
16:40 1015 29.97 844 24.92 25.9 78.7 25 4.4 40
16:45 1015 29.97 844 24.92 26.1 78.9 24 4 39.1
16:50 1015 29.97 844 24.92 25.8 78.4 24 3.8 38.9
16:55 1015 29.97 844 24.92 25.8 78.4 24 4.2 39.6
17:00 1015 29.97 844 24.92 25.6 78 24 3.8 38.8
17:05 1015 29.97 844 24.92 25.7 78.2 23 3.5 38.2
17:10 1015 29.97 844 24.92 25.8 78.5 23 3.3 38
17:15 1015 29.97 844 24.92 25.8 78.5 23 3.5 38.2
17:20 1015 29.97 844 24.92 25.8 78.4 23 3.4 38.1
17:25 1015 29.97 844 24.92 26.1 79 22 3.3 37.9
17:30 1015 29.97 844 24.92 26.1 78.9 23 3.5 38.3
17:35 1015 29.97 844 24.92 26.1 78.9 23 3.9 39
17:40 1015 29.97 844 24.92 26.2 79.1 22 3.2 37.8
17:45 1015 29.97 844 24.92 26.3 79.4 23 3.6 38.5
17:50 1015 29.97 844 24.92 26.1 79.1 23 3.8 38.9
17:55 1015 29.97 844 24.92 26.4 79.6 22 3.5 38.3
18:00 1015 29.97 844 24.92 26.9 80.4 22 3.7 38.7
18:05 1015 29.97 844 24.92 26.8 80.3 22 3.6 38.5
18:10 1015 29.97 844 24.92 27.1 80.7 24 4.9 40.9
18:15 1015 29.97 844 24.92 27.4 81.3 22 4.1 39.3
18:20 1015 29.97 844 24.92 27.7 81.9 22 4.2 39.6
18:25 1015 29.97 844 24.92 27.5 81.5 23 4.5 40.2
18:30 1015 29.97 844 24.92 26.5 79.7 24 4.3 39.8
18:35 1015 29.97 844 24.92 25.7 78.2 24 3.8 38.9
18:40 1015 29.97 844 24.92 25.6 78 24 3.9 39.1
18:45 1015 29.97 844 24.92 25.7 78.2 24 3.8 38.8
18:50 1015 29.97 844 24.92 25.5 77.8 24 3.7 38.6
18:55 1015 29.97 844 24.92 25.5 77.9 24 3.6 38.6
19:00 1015 29.97 844 24.92 25.5 77.9 25 4.3 39.7
19:05 1015 29.97 844 24.92 25.4 77.7 28 5.7 42.3
19:10 1015 29.97 844 24.92 25.2 77.3 26 4.6 40.2
19:15 1015 29.97 844 24.92 25.1 77.2 26 4.4 40
19:20 1015 29.97 844 24.92 25.1 77.1 27 5.1 41.2
19:25 1015 29.97 844 24.92 25 77 28 5.6 42
19:30 1015 29.97 844 24.92 24.9 76.9 27 4.7 40.5
19:35 1015 29.97 844 24.92 24.9 76.8 30 6.2 43.1
19:40 1015 29.97 844 24.92 24.7 76.5 31 6.5 43.6
19:45 1015 29.97 844 24.92 24.6 76.2 30 6.3 43.4
19:50 1015 29.97 844 24.92 24.5 76 30 6.2 43.2
19:55 1015 29.97 844 24.92 24.3 75.7 32 6.7 44.1
20:00 1015 29.97 844 24.92 24.1 75.3 35 8 46.5
20:05 1015 29.97 844 24.92 23.1 73.6 39 8.6 47.5
20:10 1015 29.97 844 24.92 22.5 72.5 41 8.9 48
20:15 1015 29.97 844 24.92 22.2 72 41 8.5 47.3
20:20 1015 29.97 844 24.92 21.9 71.4 40 7.9 46.3
20:25 1015 29.97 844 24.92 21.4 70.6 42 8.1 46.6
20:30 1015 29.97 844 24.92 21.1 70 44 8.7 47.6
20:35 1015 29.97 844 24.92 20.5 68.8 45 8.3 47
20:40 1015 29.97 844 24.92 20.1 68.1 47 8.7 47.7
20:45 1015 29.97 844 24.92 19.7 67.5 48 8.6 47.5
20:50 1015 29.97 844 24.92 19.6 67.2 49 8.6 47.4
20:55 1015 29.97 844 24.92 19.5 67.1 51 9.1 48.4
21:00 1015 29.97 844 24.92 19.3 66.7 51 8.9 48.1
21:05 1015 29.97 844 24.92 19.2 66.6 49 8.3 47
21:10 1015 29.97 844 24.92 19.1 66.4 49 8.3 46.9
21:15 1015 29.97 844 24.92 18.8 65.9 47 7.4 45.4
21:20 1015 29.97 844 24.92 18.9 66 47 7.5 45.5
21:25 1015 29.97 844 24.92 18.9 66 47 7.6 45.6
21:30 1015 29.97 844 24.92 18.7 65.7 48 7.5 45.6
21:35 1015 29.97 844 24.92 18.7 65.6 48 7.7 45.8
21:40 1015 29.97 844 24.92 18.7 65.6 47 7.3 45.1
21:45 1015 29.97 844 24.92 18.7 65.7 48 7.7 45.8
21:50 1015 29.97 844 24.92 18.5 65.3 49 7.6 45.7
21:55 1015 29.97 844 24.92 18.4 65 49 7.5 45.5
22:00 1015 29.97 844 24.92 18.3 65 48 7.2 44.9
22:05 1015 29.97 845 24.95 18.4 65.2 48 7.4 45.3
22:10 1015 29.97 845 24.95 18.5 65.4 49 7.8 46
22:15 1015 29.97 844 24.92 18.5 65.3 49 7.6 45.6
22:20 1015 29.97 845 24.95 18.2 64.7 49 7.3 45.2
22:25 1015 29.97 844 24.92 18.1 64.5 49 7.2 45
22:30 1015 29.97 844 24.92 18 64.4 49 7.2 45
22:35 1015 29.97 845 24.95 18.1 64.6 47 6.8 44.2
22:40 1015 29.97 845 24.95 18.4 65.2 52 8.5 47.3
22:45 1015 29.97 845 24.95 18.4 65.2 47 6.9 44.4
22:50 1015 29.97 845 24.95 18 64.3 49 7.3 45.2
22:55 1015 29.97 845 24.95 17.7 63.9 49 7 44.6
23:00 1015 29.97 845 24.95 17.9 64.1 47 6.6 43.9
23:05 1015 29.97 845 24.95 18.1 64.5 50 7.7 45.8
23:10 1015 29.97 845 24.95 18.2 64.7 50 7.6 45.7
23:15 1015 29.97 845 24.95 18.1 64.6 47 6.7 44
23:20 1016 30 845 24.95 17.9 64.3 46 6.4 43.5
23:25 1016 30 845 24.95 18 64.4 46 6.3 43.3
23:30 1016 30 845 24.95 18.3 64.9 44 6 42.8
23:35 1016 30 845 24.95 18.1 64.7 45 6.2 43.2
23:40 1016 30 845 24.95 18 64.5 46 6.2 43.2
23:45 1016 30 845 24.95 17.8 64.1 46 6.2 43.2
23:50 1016 30 845 24.95 17.6 63.7 46 6 42.9
23:55 1016 30 845 24.95 17.6 63.8 45 5.6 42.1
24:00 1016 30 845 24.95 17.8 64.1 45 5.7 42.3